createdAt,value
2023-03-10T00:04:58.574Z,8.16
2023-03-10T00:10:27.308Z,8.70
2023-03-10T00:15:32.479Z,8.64
2023-03-10T00:20:36.518Z,7.51
2023-03-10T00:26:05.585Z,8.53
2023-03-10T00:31:13.351Z,8.19
2023-03-10T00:37:06.800Z,8.50
2023-03-10T00:42:11.374Z,8.47
2023-03-10T00:47:14.564Z,7.77
2023-03-10T00:52:18.170Z,7.38
2023-03-10T00:57:21.226Z,7.15
2023-03-10T01:02:25.311Z,8.11
2023-03-10T01:07:28.385Z,7.49
2023-03-10T01:12:33.254Z,7.23
2023-03-10T01:17:36.046Z,7.27
2023-03-10T01:22:38.796Z,8.06
2023-03-10T01:27:43.494Z,8.12
2023-03-10T01:32:46.634Z,7.77
2023-03-10T01:38:17.989Z,8.35
2023-03-10T01:43:24.635Z,8.41
2023-03-10T01:56:26.468Z,8.44
2023-03-10T02:01:31.556Z,7.95
2023-03-10T02:06:36.579Z,8.23
2023-03-10T02:11:39.666Z,8.28
2023-03-10T02:17:17.528Z,8.52
2023-03-10T02:30:28.542Z,8.36
2023-03-10T02:35:33.510Z,7.59
2023-03-10T02:40:48.438Z,8.28
2023-03-10T02:46:05.651Z,8.02
2023-03-10T02:51:19.463Z,8.00
2023-03-10T02:56:23.155Z,8.47
2023-03-10T03:01:26.806Z,8.08
2023-03-10T03:06:33.581Z,8.42
2023-03-10T03:11:38.035Z,8.37
2023-03-10T03:16:44.139Z,7.20
2023-03-10T03:21:50.426Z,7.86
2023-03-10T03:26:55.895Z,8.37
2023-03-10T03:32:03.402Z,7.62
2023-03-10T03:38:03.132Z,7.89
2023-03-10T03:43:08.084Z,7.34
2023-03-10T03:48:14.016Z,7.54
2023-03-10T03:53:18.805Z,7.62
2023-03-10T03:58:21.985Z,7.15
2023-03-10T04:03:27.188Z,7.40
2023-03-10T04:08:30.807Z,7.18
2023-03-10T04:13:35.143Z,6.52
2023-03-10T04:18:38.366Z,7.36
2023-03-10T04:23:42.537Z,6.81
2023-03-10T04:28:48.756Z,7.42
2023-03-10T04:33:54.052Z,7.14
2023-03-10T04:38:58.744Z,8.15
2023-03-10T04:44:06.318Z,8.17
2023-03-10T04:49:10.269Z,9.13
2023-03-10T04:54:13.014Z,9.78
2023-03-10T04:59:16.672Z,10.58
2023-03-10T05:04:20.029Z,11.06
2023-03-10T05:09:23.217Z,11.73
2023-03-10T05:14:26.228Z,12.34
2023-03-10T05:19:29.104Z,12.97
2023-03-10T05:24:35.896Z,13.13
2023-03-10T05:29:40.362Z,13.23
2023-03-10T05:34:51.294Z,12.60
2023-03-10T05:39:55.793Z,11.95
2023-03-10T05:45:00.871Z,11.70
2023-03-10T05:50:05.034Z,11.49
2023-03-10T05:55:14.897Z,11.22
2023-03-10T06:00:19.134Z,11.20
2023-03-10T06:05:36.899Z,11.20
2023-03-10T06:10:40.450Z,12.05
2023-03-10T06:15:43.184Z,13.10
2023-03-10T06:20:48.614Z,13.15
2023-03-10T06:26:08.368Z,12.91
2023-03-10T06:31:18.453Z,13.07
2023-03-10T06:36:22.332Z,13.99
2023-03-10T06:41:26.884Z,14.93
2023-03-10T06:46:31.656Z,15.57
2023-03-10T06:51:34.633Z,15.90
2023-03-10T06:56:37.639Z,16.34
2023-03-10T07:01:40.387Z,16.15
2023-03-10T07:06:42.781Z,16.40
2023-03-10T07:11:45.070Z,15.91
2023-03-10T07:16:48.567Z,15.41
2023-03-10T07:21:51.168Z,15.46
2023-03-10T07:26:54.593Z,15.91
2023-03-10T07:31:58.664Z,16.11
2023-03-10T07:37:05.575Z,16.31
2023-03-10T07:42:17.236Z,16.25
2023-03-10T07:47:22.540Z,16.34
2023-03-10T07:52:26.753Z,16.24
2023-03-10T07:57:30.389Z,16.41
2023-03-10T08:02:33.270Z,16.05
2023-03-10T08:07:37.998Z,16.21
2023-03-10T08:12:41.609Z,16.05
2023-03-10T08:17:44.273Z,15.95
2023-03-10T08:22:47.207Z,16.03
2023-03-10T08:27:51.659Z,16.40
2023-03-10T08:32:55.822Z,16.70
2023-03-10T08:37:59.119Z,16.64
2023-03-10T08:43:01.965Z,16.71
2023-03-10T08:48:06.368Z,16.53
2023-03-10T08:53:13.849Z,16.48
2023-03-10T08:58:24.994Z,16.23
2023-03-10T09:03:44.856Z,16.23
2023-03-10T09:08:51.300Z,16.41
2023-03-10T09:13:56.286Z,16.23
2023-03-10T09:19:00.516Z,16.44
2023-03-10T09:24:04.389Z,16.43
2023-03-10T09:29:06.844Z,16.38
2023-03-10T09:34:12.932Z,16.23
2023-03-10T09:39:16.465Z,16.45
2023-03-10T09:44:38.717Z,16.23
2023-03-10T09:49:56.922Z,16.42
2023-03-10T09:55:29.134Z,16.31
2023-03-10T10:00:43.096Z,16.28
2023-03-10T10:05:47.324Z,16.41
2023-03-10T10:10:58.184Z,16.16
2023-03-10T10:16:33.453Z,16.50
2023-03-10T10:22:21.720Z,16.54
2023-03-10T10:27:25.580Z,16.55
2023-03-10T10:32:28.368Z,16.64
2023-03-10T10:37:40.191Z,16.57
2023-03-10T10:42:56.597Z,16.60
2023-03-10T10:48:02.589Z,16.64
2023-03-10T10:53:20.791Z,16.82
2023-03-10T10:58:34.148Z,16.82
2023-03-10T11:03:41.735Z,16.85
2023-03-10T11:08:45.827Z,16.90
2023-03-10T11:13:51.762Z,16.95
2023-03-10T11:19:13.378Z,16.95
2023-03-10T11:24:16.088Z,16.88
2023-03-10T11:29:33.295Z,16.71
2023-03-10T11:34:59.726Z,16.85
2023-03-10T11:40:20.261Z,16.93
2023-03-10T11:45:44.186Z,16.99
2023-03-10T11:50:56.352Z,17.01
2023-03-10T11:56:03.162Z,16.92
2023-03-10T12:01:13.533Z,16.81
2023-03-10T12:06:54.349Z,16.87
2023-03-10T12:11:57.225Z,16.79
2023-03-10T12:17:03.145Z,16.53
2023-03-10T12:22:25.317Z,16.65
2023-03-10T12:27:28.204Z,16.63
2023-03-10T12:32:47.833Z,16.33
2023-03-10T12:38:00.067Z,16.20
2023-03-10T12:43:41.873Z,16.25
2023-03-10T12:48:54.038Z,16.13
2023-03-10T12:54:07.242Z,16.05
2023-03-10T12:59:40.970Z,15.84
2023-03-10T13:04:44.219Z,15.90
2023-03-10T13:09:55.062Z,15.86
2023-03-10T13:15:01.449Z,15.58
2023-03-10T13:20:09.294Z,15.67
2023-03-10T13:25:16.101Z,15.56
2023-03-10T13:30:27.427Z,15.65
2023-03-10T13:35:34.193Z,15.64
2023-03-10T13:40:44.571Z,15.41
2023-03-10T13:45:58.677Z,15.52
2023-03-10T13:51:16.477Z,15.44
2023-03-10T13:56:23.217Z,15.32
2023-03-10T14:01:30.239Z,15.00
2023-03-10T14:06:33.599Z,14.93
2023-03-10T14:11:45.379Z,14.84
2023-03-10T14:16:54.409Z,14.83
2023-03-10T14:22:01.921Z,14.74
2023-03-10T14:27:11.931Z,15.05
2023-03-10T14:32:15.278Z,15.07
2023-03-10T14:37:18.152Z,14.16
2023-03-10T14:42:29.413Z,14.91
2023-03-10T14:47:33.718Z,14.47
2023-03-10T14:52:43.963Z,14.41
2023-03-10T14:57:56.229Z,14.29
2023-03-10T15:03:00.058Z,14.64
2023-03-10T15:08:05.331Z,14.43
2023-03-10T15:13:08.506Z,14.56
2023-03-10T15:18:13.638Z,14.03
2023-03-10T15:23:19.874Z,14.10
2023-03-10T15:28:23.441Z,14.17
2023-03-10T15:33:26.670Z,13.47
2023-03-10T15:38:29.876Z,13.19
2023-03-10T15:43:32.366Z,13.07
2023-03-10T15:48:37.673Z,13.03
2023-03-10T15:53:41.694Z,13.87
2023-03-10T15:58:45.124Z,13.63
2023-03-10T16:03:52.589Z,13.75
2023-03-10T16:08:56.577Z,13.27
2023-03-10T16:13:59.327Z,13.18
2023-03-10T16:19:02.977Z,13.33
2023-03-10T16:24:05.836Z,12.60
2023-03-10T16:29:08.625Z,12.83
2023-03-10T16:34:11.305Z,12.95
2023-03-10T16:39:15.656Z,13.32
2023-03-10T16:44:20.683Z,12.77
2023-03-10T16:49:24.004Z,12.83
2023-03-10T16:54:27.273Z,13.05
2023-03-10T16:59:32.487Z,12.80
2023-03-10T17:04:35.394Z,12.49
2023-03-10T17:09:38.541Z,12.20
2023-03-10T17:14:41.456Z,12.86
2023-03-10T17:19:44.217Z,12.80
2023-03-10T17:24:52.170Z,12.76
2023-03-10T17:29:59.228Z,13.19
2023-03-10T17:35:01.950Z,12.46
2023-03-10T17:40:05.586Z,12.69
2023-03-10T17:45:09.181Z,13.15
2023-03-10T17:50:12.442Z,12.36
2023-03-10T17:55:15.935Z,12.64
2023-03-10T18:00:19.950Z,12.59
2023-03-10T18:05:22.933Z,12.76
2023-03-10T18:10:26.271Z,12.88
2023-03-10T18:15:29.601Z,12.39
2023-03-10T18:20:35.144Z,12.58
2023-03-10T18:25:45.277Z,12.48
2023-03-10T18:30:50.256Z,12.69
2023-03-10T18:35:55.039Z,12.60
2023-03-10T18:41:01.959Z,12.52
2023-03-10T18:46:04.847Z,12.35
2023-03-10T18:51:07.625Z,12.35
2023-03-10T18:56:10.722Z,12.43
2023-03-10T19:01:14.696Z,11.41
2023-03-10T19:06:17.589Z,12.10
2023-03-10T19:11:24.663Z,12.09
2023-03-10T19:16:27.411Z,11.72
2023-03-10T19:21:30.428Z,11.64
2023-03-10T19:26:33.489Z,11.57
2023-03-10T19:31:40.262Z,11.35
2023-03-10T19:36:42.836Z,11.72
2023-03-10T19:41:45.636Z,11.35
2023-03-10T19:46:48.446Z,11.67
2023-03-10T19:51:51.343Z,11.55
2023-03-10T19:56:53.934Z,11.05
2023-03-10T20:01:56.699Z,11.52
2023-03-10T20:07:02.935Z,11.02
2023-03-10T20:12:06.106Z,11.37
2023-03-10T20:17:09.529Z,10.96
2023-03-10T20:22:15.500Z,10.97
2023-03-10T20:27:18.804Z,11.24
2023-03-10T20:32:21.904Z,11.08
2023-03-10T20:37:25.188Z,10.91
2023-03-10T20:42:28.414Z,11.00
2023-03-10T20:47:32.155Z,11.37
2023-03-10T20:52:37.058Z,11.20
2023-03-10T20:57:48.474Z,11.26
2023-03-10T21:02:53.279Z,11.57
2023-03-10T21:07:56.723Z,11.08
2023-03-10T21:13:00.411Z,11.61
2023-03-10T21:18:03.561Z,11.37
2023-03-10T21:23:06.960Z,10.63
2023-03-10T21:28:10.384Z,10.89
2023-03-10T21:33:13.478Z,10.59
2023-03-10T21:38:17.815Z,11.16
2023-03-10T21:43:21.118Z,10.99
2023-03-10T21:48:24.073Z,10.73
2023-03-10T21:53:28.803Z,10.84
2023-03-10T21:58:31.403Z,10.54
2023-03-10T22:03:35.504Z,10.26
2023-03-10T22:08:39.872Z,10.45
2023-03-10T22:13:42.896Z,10.66
2023-03-10T22:18:45.617Z,10.04
2023-03-10T22:23:48.371Z,10.25
2023-03-10T22:28:51.655Z,10.45
2023-03-10T22:33:54.437Z,10.41
2023-03-10T22:38:59.539Z,10.42
2023-03-10T22:44:02.495Z,10.49
2023-03-10T22:49:06.784Z,10.20
2023-03-10T22:54:10.016Z,9.90
2023-03-10T22:59:13.066Z,9.98
2023-03-10T23:04:16.907Z,10.16
2023-03-10T23:09:19.998Z,10.10
2023-03-10T23:19:43.424Z,9.94
2023-03-10T23:24:46.443Z,9.52
2023-03-10T23:29:49.530Z,9.86
2023-03-10T23:34:52.497Z,9.64
2023-03-10T23:39:55.568Z,9.71
2023-03-10T23:44:58.090Z,9.03
2023-03-10T23:50:03.036Z,8.70
2023-03-10T23:55:07.315Z,9.36
